Latest Weather Observations for Mallacoota

IDV60801

Issued at 3:02 pm EDT Sunday 29 March 2015 (issued every 30 minutes, with the page automatically refreshed every 10 minutes)

About weather observations | Map of weather stations | Latest weather observations for VIC | Other Formats
Station Details ID: 084084 Name: MALLACOOTA Lat: -37.60 Lon: 149.73 Height: 22.0 m
Data from the previous 72 hours. | See also: Recent months at Mallacoota
Date/Time
EDT
Temp
°C
App
Temp
°C
Dew
Point
Rel
Hum
%
Delta-T
°C
Wind Press
QNH
hPa
Press
MSL
hPa
Rain
since 9 am
mm
Dir
 
Spd
km/h
Gust
km/h
Spd
kts
Gust
kts
29/03:00pm 19.3 17.3 11.6 61 4.2 SE 13 15 7 8 1021.1 1021.0 0.0
29/02:30pm 19.2 17.3 11.7 62 4.1 SE 13 15 7 8 1021.3 - 0.0
29/02:00pm 19.3 18.0 12.6 65 3.8 SE 11 15 6 8 1021.4 - 0.0
29/01:30pm 19.0 17.6 12.3 65 3.7 ESE 11 13 6 7 1021.8 - 0.0
29/01:00pm 18.6 17.1 11.9 65 3.7 SE 11 15 6 8 1022.3 - 0.0
29/12:30pm 19.3 18.5 13.0 67 3.6 SE 9 13 5 7 1022.6 - 0.0
29/12:00pm 18.6 17.3 12.6 68 3.3 E 11 13 6 7 1022.5 1022.5 0.0
29/11:30am 17.8 16.9 12.5 71 2.9 S 9 13 5 7 1022.8 - 0.0
29/11:00am 17.3 15.4 11.8 70 3.0 S 13 17 7 9 1023.1 - 0.0
29/10:30am 17.7 16.5 11.7 68 3.3 SSW 9 15 5 8 1023.3 - 0.0
29/10:00am 16.6 15.4 11.5 72 2.8 WSW 9 13 5 7 1023.1 - 0.0
29/09:30am 14.9 13.9 10.9 77 2.1 WNW 7 11 4 6 1023.0 - 0.0
29/09:00am 13.0 11.0 10.2 83 1.4 WNW 11 13 6 7 1022.6 1022.6 0.0
29/08:30am 11.3 9.2 9.6 89 0.9 WNW 11 13 6 7 1022.1 - 0.0
29/08:00am 10.4 7.8 9.2 92 0.6 WNW 13 17 7 9 1021.8 - 0.0
29/07:30am 8.8 5.8 7.6 92 0.6 WNW 13 17 7 9 1021.6 - 0.0
29/07:00am 8.3 5.9 7.1 92 0.6 WNW 9 13 5 7 1021.3 - 0.0
29/06:30am 8.4 5.7 7.2 92 0.6 WNW 11 13 6 7 1020.9 - 0.0
29/06:00am 8.8 6.1 7.4 91 0.7 WNW 11 15 6 8 1020.7 1020.6 0.0
29/05:30am 9.0 6.0 7.6 91 0.7 WNW 13 17 7 9 1020.7 - 0.0
29/05:00am 9.5 6.6 8.1 91 0.7 WNW 13 15 7 8 1020.5 - 0.0
29/04:30am 9.8 7.0 8.4 91 0.7 NW 13 17 7 9 1020.5 - 0.0
29/04:00am 9.8 7.0 8.4 91 0.7 NW 13 17 7 9 1020.6 - 0.0
29/03:30am 9.8 7.0 8.4 91 0.7 NW 13 17 7 9 1020.9 - 0.0
29/03:00am 10.2 7.5 8.8 91 0.7 WNW 13 17 7 9 1021.3 1021.2 0.0
29/02:30am 10.0 7.2 8.4 90 0.8 NW 13 17 7 9 1021.6 - 0.0
29/02:00am 9.9 7.4 8.2 89 0.8 WNW 11 15 6 8 1021.9 - 0.0
29/01:30am 10.3 7.9 8.6 89 0.8 WNW 11 15 6 8 1022.1 - 0.0
29/01:00am 10.3 7.8 8.4 88 0.9 WNW 11 13 6 7 1022.3 - 0.0
29/12:30am 10.6 8.6 8.5 87 1.0 WNW 9 13 5 7 1022.4 - 0.0
29/12:00am 11.0 8.3 9.1 88 0.9 WNW 13 17 7 9 1022.8 1022.8 0.0
 
Date/Time
EDT
Temp
°C
App
Temp
°C
Dew
Point
Rel
Hum
%
Delta-T
°C
Wind Press
QNH
hPa
Press
MSL
hPa
Rain
since 9 am
mm
Dir
 
Spd
km/h
Gust
km/h
Spd
kts
Gust
kts
28/11:30pm 10.7 8.3 8.8 88 0.9 WNW 11 13 6 7 1022.9 - 0.0
28/11:00pm 11.1 8.8 9.0 87 1.0 WNW 11 13 6 7 1023.0 - 0.0
28/10:30pm 11.1 9.2 9.0 87 1.0 WNW 9 13 5 7 1023.3 - 0.0
28/10:00pm 11.3 9.4 8.9 85 1.2 NW 9 11 5 6 1023.4 - 0.0
28/09:30pm 11.5 9.5 8.7 83 1.4 NW 9 11 5 6 1023.4 - 0.0
28/09:00pm 12.0 10.0 8.8 81 1.6 WNW 9 11 5 6 1023.2 1023.2 0.0
28/08:30pm 12.7 10.8 9.2 79 1.8 NW 9 13 5 7 1023.0 - 0.0
28/08:00pm 12.9 11.3 8.6 75 2.1 WNW 7 9 4 5 1023.0 - 0.0
28/07:30pm 13.5 11.9 8.6 72 2.5 W 7 9 4 5 1022.5 - 0.0
28/07:00pm 15.1 13.5 8.8 66 3.2 WSW 7 11 4 6 1022.3 - 0.0
28/06:30pm 16.1 13.4 8.8 62 3.7 SW 13 22 7 12 1022.2 - 0.0
28/06:00pm 16.8 13.4 9.0 60 4.0 SSW 17 26 9 14 1021.9 1021.8 0.0
28/05:30pm 17.6 14.3 9.5 59 4.2 SSW 17 26 9 14 1021.8 - 0.0
28/05:00pm 18.2 14.5 9.5 57 4.6 SSW 19 28 10 15 1021.7 - 0.0
28/04:30pm 18.3 14.7 10.4 60 4.2 SSW 20 30 11 16 1021.8 - 0.0
28/04:00pm 18.9 15.7 9.9 56 4.8 SSW 17 24 9 13 1021.7 - 0.0
28/03:30pm 19.3 15.4 9.5 53 5.2 SW 20 32 11 17 1021.9 - 0.0
28/03:00pm 19.8 16.3 10.2 54 5.1 WSW 19 30 10 16 1021.9 1021.8 0.0
28/02:30pm 19.4 15.5 9.3 52 5.3 WSW 20 32 11 17 1022.0 - 0.0
28/02:00pm 19.2 15.0 9.7 54 5.0 SW 22 35 12 19 1022.1 - 0.0
28/01:30pm 20.1 17.1 10.8 55 5.1 SW 17 28 9 15 1022.4 - 0.0
28/01:00pm 19.3 16.1 10.0 55 5.0 WSW 17 28 9 15 1022.8 - 0.0
28/12:30pm 19.0 15.4 10.0 56 4.8 SW 19 41 10 22 1023.1 - 0.0
28/12:00pm 17.3 13.5 9.7 61 4.0 SW 20 30 11 16 1023.4 1023.4 0.0
28/11:30am 16.9 13.3 9.8 63 3.7 WSW 19 33 10 18 1023.5 - 0.0
28/11:00am 16.6 14.3 10.5 67 3.2 WSW 13 24 7 13 1023.6 - 0.0
28/10:30am 15.6 12.7 9.7 68 3.1 WSW 15 24 8 13 1023.6 - 0.0
28/10:00am 15.0 12.5 9.8 71 2.7 W 13 22 7 12 1023.5 - 0.0
28/09:30am 14.3 10.5 9.1 71 2.6 W 19 28 10 15 1023.2 - 0.0
28/09:00am 14.0 10.6 9.2 73 2.4 W 17 28 9 15 1022.9 1022.9 2.6
28/08:30am 13.4 10.0 9.1 75 2.2 W 17 32 9 17 1022.5 - 2.6
28/08:00am 13.2 9.8 9.1 76 2.1 W 17 28 9 15 1022.4 - 2.6
28/07:30am 13.1 9.7 9.2 77 2.0 W 17 28 9 15 1022.0 - 2.6
28/07:00am 13.0 9.7 9.4 79 1.8 W 17 28 9 15 1021.6 - 2.6
28/06:30am 12.8 10.1 10.2 84 1.3 W 15 26 8 14 1021.4 - 2.6
28/06:00am 12.3 10.0 10.4 88 1.0 W 13 20 7 11 1021.3 1021.2 2.6
28/05:30am 12.1 9.4 10.5 90 0.8 W 15 22 8 12 1021.1 - 2.6
28/05:00am 11.9 10.4 10.5 91 0.7 W 9 17 5 9 1020.8 - 2.6
28/04:30am 11.9 10.0 10.5 91 0.7 WSW 11 17 6 9 1020.8 - 2.2
28/04:00am 12.1 9.8 10.3 89 0.9 WSW 13 26 7 14 1020.8 - 1.6
28/03:30am 12.5 8.8 10.2 86 1.2 W 20 33 11 18 1020.5 - 0.6
28/03:00am 13.0 9.3 10.0 82 1.5 W 20 39 11 21 1020.5 1020.4 0.2
28/02:30am 13.8 10.1 9.6 76 2.2 W 19 32 10 17 1020.4 - 0.2
28/02:00am 13.7 9.5 9.6 76 2.1 W 22 39 12 21 1020.0 - 0.2
28/01:30am 13.5 9.9 9.9 79 1.9 W 19 39 10 21 1020.0 - 0.2
28/01:00am 13.1 9.0 10.1 82 1.5 W 22 37 12 20 1020.0 - 0.2
28/12:30am 13.1 9.4 10.3 83 1.5 W 20 39 11 21 1019.9 - 0.2
28/12:00am 13.3 9.9 10.5 83 1.5 W 19 32 10 17 1019.8 1019.7 0.2
 
Date/Time
EDT
Temp
°C
App
Temp
°C
Dew
Point
Rel
Hum
%
Delta-T
°C
Wind Press
QNH
hPa
Press
MSL
hPa
Rain
since 9 am
mm
Dir
 
Spd
km/h
Gust
km/h
Spd
kts
Gust
kts
27/11:30pm 13.2 10.6 10.7 85 1.3 W 15 24 8 13 1019.9 - 0.0
27/11:00pm 13.5 10.1 10.7 83 1.5 WSW 19 33 10 18 1019.7 - 0.0
27/10:30pm 13.8 10.8 10.8 82 1.6 W 17 26 9 14 1019.6 - 0.0
27/10:00pm 13.7 10.3 10.7 82 1.6 W 19 32 10 17 1019.5 - 0.0
27/09:30pm 14.4 10.8 10.0 75 2.3 W 19 35 10 19 1019.2 - 0.0
27/09:00pm 15.1 11.3 9.7 70 2.8 W 20 33 11 18 1018.8 1018.7 0.0
27/08:30pm 15.9 11.6 9.3 65 3.4 WSW 22 44 12 24 1018.2 - 0.0
27/08:00pm 16.0 12.0 9.2 64 3.5 WSW 20 44 11 24 1017.8 - 0.0
27/07:30pm 16.0 12.0 9.2 64 3.5 W 20 46 11 25 1017.3 - 0.0
27/07:00pm 15.9 11.6 9.3 65 3.4 W 22 41 12 22 1016.8 - 0.0
27/06:30pm 16.3 12.4 9.3 63 3.6 W 20 37 11 20 1016.1 - 0.0
27/06:00pm 16.4 12.1 9.3 63 3.7 W 22 43 12 23 1015.6 1015.5 0.0
27/05:30pm 16.5 11.0 9.2 62 3.8 WSW 28 65 15 35 1015.4 - 0.0
27/05:01pm 16.4 10.9 9.1 62 3.8 W 28 63 15 34 1015.3 - 0.0
27/05:00pm 16.4 11.3 9.3 63 3.7 W 26 50 14 27 1015.3 - 0.0
27/04:30pm 17.6 11.7 9.2 58 4.4 W 30 54 16 29 1015.0 - 0.0
27/04:04pm 17.8 12.3 9.2 57 4.5 W 28 48 15 26 1014.9 - 0.0
27/04:00pm 17.7 12.6 9.1 57 4.5 W 26 46 14 25 1014.9 - 0.0
27/03:30pm 17.5 13.5 10.6 64 3.7 W 22 43 12 23 1015.2 - 0.0
27/03:01pm 17.2 11.9 9.9 62 3.8 W 28 54 15 29 1015.4 - 0.0
27/03:00pm 17.6 12.7 10.0 61 4.0 W 26 56 14 30 1015.4 1015.3 0.0
27/02:51pm 17.6 12.2 9.5 59 4.2 W 28 56 15 30 1015.5 - 0.0
27/02:30pm 16.7 12.6 10.1 65 3.5 W 22 46 12 25 1015.7 - 0.0
27/02:00pm 18.0 12.4 8.8 55 4.8 WSW 28 46 15 25 1015.6 - 0.0
27/01:30pm 18.1 12.0 8.4 53 5.0 WSW 30 54 16 29 1016.0 - 0.0
27/01:00pm 17.6 11.5 8.2 54 4.8 WSW 30 57 16 31 1016.3 - 0.0
27/12:30pm 17.8 11.5 7.5 51 5.2 WSW 30 52 16 28 1016.0 - 0.0
27/12:00pm 18.8 12.8 6.9 46 6.0 W 28 52 15 28 1015.5 1015.4 0.0
27/11:34am 18.7 12.7 6.9 46 5.9 W 28 50 15 27 1015.7 - 0.0
27/11:30am 19.1 13.9 7.2 46 6.0 W 24 50 13 27 1015.6 - 0.0
27/11:02am 18.6 12.4 6.1 44 6.2 W 28 54 15 29 1015.5 - 0.0
27/11:00am 18.7 13.0 6.9 46 5.9 W 26 54 14 29 1015.4 - 0.0
27/10:30am 18.3 14.3 6.8 47 5.7 W 17 30 9 16 1015.6 - 0.0
27/10:00am 17.1 14.3 6.9 51 5.1 WNW 11 20 6 11 1015.8 - 0.0
27/09:30am 16.0 13.9 6.7 54 4.6 WNW 7 15 4 8 1015.8 - 0.0
27/09:00am 14.8 13.1 7.6 62 3.6 NW 6 9 3 5 1016.1 1016.0 0.0
27/08:30am 12.1 10.7 7.2 72 2.4 NW 4 6 2 3 1016.3 - 0.0
27/08:00am 9.1 6.8 5.7 79 1.5 WNW 7 9 4 5 1016.0 - 0.0
27/07:30am 8.2 5.2 4.0 75 1.8 WNW 9 11 5 6 1015.7 - 0.0
27/07:00am 8.3 5.3 3.9 74 1.9 NW 9 13 5 7 1015.4 - 0.0
27/06:30am 9.1 5.7 3.9 70 2.3 NW 11 15 6 8 1015.2 - 0.0
27/06:00am 8.3 4.7 3.2 70 2.2 NW 11 13 6 7 1015.0 1014.9 0.0
27/05:30am 9.0 5.1 3.2 67 2.5 NW 13 17 7 9 1014.8 - 0.0
27/05:00am 9.4 5.5 3.4 66 2.6 NW 13 17 7 9 1015.0 - 0.0
27/04:30am 8.9 5.4 3.5 69 2.3 NW 11 15 6 8 1015.1 - 0.0
27/04:00am 9.1 5.7 3.9 70 2.3 NW 11 17 6 9 1015.2 - 0.0
27/03:30am 9.3 5.5 4.1 70 2.3 NNW 13 17 7 9 1015.3 - 0.0
27/03:00am 9.4 6.1 4.6 72 2.1 NNW 11 13 6 7 1015.6 1015.5 0.0
27/02:30am 9.8 6.6 5.2 73 2.1 NNW 11 19 6 10 1015.9 - 0.0
27/02:00am 9.9 6.5 6.1 77 1.8 NNW 13 17 7 9 1016.0 - 0.0
27/01:30am 10.1 7.2 6.3 77 1.8 NNW 11 17 6 9 1016.3 - 0.0
27/01:00am 10.4 7.3 7.3 81 1.5 NNW 13 17 7 9 1016.4 - 0.0
27/12:30am 9.9 6.9 7.8 87 1.0 NW 13 17 7 9 1016.4 - 0.0
27/12:00am 10.2 7.3 8.1 87 1.0 NW 13 17 7 9 1016.6 1016.5 0.0
 
Date/Time
EDT
Temp
°C
App
Temp
°C
Dew
Point
Rel
Hum
%
Delta-T
°C
Wind Press
QNH
hPa
Press
MSL
hPa
Rain
since 9 am
mm
Dir
 
Spd
km/h
Gust
km/h
Spd
kts
Gust
kts
26/11:30pm 10.4 7.9 8.2 86 1.1 NW 11 17 6 9 1016.7 - 0.0
26/11:00pm 10.5 7.9 7.9 84 1.3 NW 11 17 6 9 1016.8 - 0.0
26/10:30pm 10.6 8.0 7.8 83 1.4 NW 11 15 6 8 1017.1 - 0.0
26/10:00pm 10.9 8.3 7.8 81 1.5 NW 11 13 6 7 1017.2 - 0.0
26/09:30pm 11.1 8.6 8.3 83 1.4 NW 11 15 6 8 1017.2 - 0.0
26/09:00pm 11.1 8.7 8.5 84 1.3 NW 11 13 6 7 1017.1 1017.0 0.0
26/08:30pm 11.1 9.0 8.1 82 1.5 NW 9 11 5 6 1017.1 - 0.0
26/08:00pm 12.1 10.3 8.0 76 2.0 NW 7 9 4 5 1016.6 - 0.0
26/07:30pm 12.9 11.1 7.8 71 2.5 WSW 7 9 4 5 1016.4 - 0.0
26/07:00pm 14.4 12.8 8.1 66 3.1 W 6 7 3 4 1016.1 - 0.0
26/06:30pm 15.8 15.0 8.3 61 3.8 SSW 2 7 1 4 1015.8 - 0.0
26/06:00pm 17.0 14.3 7.4 53 4.8 SW 11 15 6 8 1015.7 1015.6 0.0
26/05:30pm 17.3 14.0 7.9 54 4.8 SSW 15 24 8 13 1015.6 - 0.0
26/05:00pm 16.5 13.6 8.0 57 4.3 SSW 13 19 7 10 1015.4 - 0.0
26/04:30pm 16.2 12.9 7.9 58 4.2 SSW 15 20 8 11 1015.4 - 0.0
26/04:00pm 16.3 13.8 8.3 59 4.1 SSW 11 17 6 9 1015.1 - 0.0
26/03:30pm 16.1 12.0 7.8 58 4.2 SW 19 35 10 19 1015.1 - 0.0

Other Formats:

Comma delimited format used in spreadsheet applications
http://www.bom.gov.au/fwo/IDV60801/IDV60801.94935.axf

JavaScript Object Notation format (JSON) in row-major order
http://www.bom.gov.au/fwo/IDV60801/IDV60801.94935.json